createdAt,value
2022-10-06T00:03:49.453Z,1093.79138
2022-10-06T00:18:51.711Z,1043.50208
2022-10-06T00:33:54.035Z,801.93408
2022-10-06T00:48:56.196Z,607.96124
2022-10-06T01:03:58.580Z,263.12057
2022-10-06T01:19:00.909Z,77.22993
2022-10-06T01:34:03.285Z,14.36836
2022-10-06T01:49:05.544Z,0.89802
2022-10-06T02:04:07.903Z,0
2022-10-06T02:19:10.240Z,0
2022-10-06T02:34:12.751Z,0
2022-10-06T02:49:15.047Z,0
2022-10-06T03:04:17.352Z,0
2022-10-06T03:19:19.641Z,0
2022-10-06T03:34:21.898Z,0
2022-10-06T03:49:24.342Z,0
2022-10-06T04:04:26.850Z,0
2022-10-06T04:19:29.166Z,0
2022-10-06T04:34:31.441Z,0
2022-10-06T04:49:33.739Z,0
2022-10-06T05:04:35.987Z,0
2022-10-06T05:19:38.305Z,0
2022-10-06T05:34:40.613Z,0
2022-10-06T05:49:42.902Z,0
2022-10-06T06:04:45.218Z,0
2022-10-06T06:19:47.588Z,0
2022-10-06T06:34:49.865Z,0
2022-10-06T06:49:52.184Z,0
2022-10-06T07:04:54.606Z,0
2022-10-06T07:19:56.897Z,0
2022-10-06T07:34:59.365Z,0
2022-10-06T07:50:01.720Z,0
2022-10-06T08:05:04.282Z,0
2022-10-06T08:20:06.559Z,0
2022-10-06T08:35:08.881Z,0
2022-10-06T08:50:11.184Z,0
2022-10-06T09:05:13.459Z,0
2022-10-06T09:20:15.814Z,0
2022-10-06T09:35:18.166Z,0
2022-10-06T09:50:20.549Z,0
2022-10-06T10:05:22.865Z,0
2022-10-06T10:20:25.232Z,0
2022-10-06T10:35:27.503Z,0
2022-10-06T10:50:29.827Z,0
2022-10-06T11:05:32.345Z,0
2022-10-06T11:20:34.625Z,0
2022-10-06T11:35:36.893Z,0
2022-10-06T11:50:39.195Z,0
2022-10-06T12:05:56.591Z,0
2022-10-06T12:20:59.600Z,0
2022-10-06T12:36:02.019Z,0
2022-10-06T12:51:04.304Z,0
2022-10-06T13:06:06.571Z,0
2022-10-06T13:21:08.995Z,0
2022-10-06T13:36:11.334Z,9.87825
2022-10-06T13:51:13.633Z,151.76579
2022-10-06T14:06:15.873Z,411.29428
2022-10-06T14:21:18.167Z,1118.03796
2022-10-06T14:36:20.493Z,1771.79834
2022-10-06T14:51:22.786Z,2003.48816
2022-10-06T15:06:25.140Z,3912.68384
2022-10-06T15:21:27.435Z,5023.5376
2022-10-06T15:36:29.757Z,4826.87061
2022-10-06T15:51:32.010Z,5680.89014
2022-10-06T16:06:34.329Z,11020.53223
2022-10-06T16:21:36.864Z,10065.03613
2022-10-06T16:36:39.218Z,15215.19434
2022-10-06T16:51:41.806Z,5211.22461
2022-10-06T17:06:44.235Z,9384.33496
2022-10-06T17:21:47.685Z,7051.27246
2022-10-06T17:36:51.692Z,5786.85693
2022-10-06T17:51:54.199Z,3412.48535
2022-10-06T18:06:56.474Z,5560.55518
2022-10-06T18:21:58.766Z,5919.76416
2022-10-06T18:37:01.039Z,5864.98486
2022-10-06T18:52:03.362Z,5811.10352
2022-10-06T19:07:05.659Z,5820.0835
2022-10-06T19:22:07.944Z,5391.72705
2022-10-06T19:37:10.391Z,5801.2251
2022-10-06T19:52:12.740Z,5809.30762
2022-10-06T20:07:15.048Z,5971.84961
2022-10-06T20:22:17.371Z,6223.2959
2022-10-06T20:37:19.710Z,5172.60938
2022-10-06T20:52:22.080Z,5750.93604
2022-10-06T21:07:24.516Z,6158.63818
2022-10-06T21:22:27.145Z,6091.28662
2022-10-06T21:37:29.507Z,5916.17188
2022-10-06T21:52:31.802Z,5794.93896
2022-10-06T22:07:34.034Z,5919.76416
2022-10-06T22:22:36.413Z,4852.91357
2022-10-06T22:37:38.766Z,4601.46729
2022-10-06T22:52:40.990Z,3874.96704
2022-10-06T23:07:43.511Z,3886.64136
2022-10-06T23:22:45.938Z,3473.55103
2022-10-06T23:37:48.384Z,1873.2749
2022-10-06T23:52:50.706Z,1559.86499
